createdAt,value
2023-03-25T00:04:50.137Z,35.39
2023-03-25T00:09:57.297Z,33.48
2023-03-25T00:15:04.494Z,35.67
2023-03-25T00:20:11.832Z,35.77
2023-03-25T00:25:19.229Z,35.90
2023-03-25T00:30:26.325Z,35.31
2023-03-25T00:35:33.525Z,35.77
2023-03-25T00:40:40.709Z,34.49
2023-03-25T00:45:48.062Z,34.78
2023-03-25T00:50:55.334Z,35.17
2023-03-25T00:56:02.554Z,35.15
2023-03-25T01:01:09.890Z,34.97
2023-03-25T01:06:17.010Z,34.94
2023-03-25T01:11:24.202Z,34.84
2023-03-25T01:16:31.480Z,35.09
2023-03-25T01:21:38.567Z,35.27
2023-03-25T01:26:45.831Z,35.52
2023-03-25T01:32:01.211Z,35.32
2023-03-25T01:37:43.871Z,35.26
2023-03-25T01:42:51.265Z,35.26
2023-03-25T01:47:59.194Z,35.32
2023-03-25T01:53:51.035Z,35.31
2023-03-25T01:59:29.971Z,35.08
2023-03-25T02:05:12.706Z,35.26
2023-03-25T02:10:32.578Z,35.27
2023-03-25T02:16:27.646Z,34.87
2023-03-25T02:21:39.876Z,35.66
2023-03-25T02:27:09.691Z,35.96
2023-03-25T02:32:49.814Z,36.17
2023-03-25T02:37:57.164Z,37.56
2023-03-25T02:43:05.067Z,37.12
2023-03-25T02:48:12.434Z,37.47
2023-03-25T02:53:20.104Z,37.09
2023-03-25T02:58:27.574Z,36.96
2023-03-25T03:03:34.970Z,36.83
2023-03-25T03:08:42.351Z,36.81
2023-03-25T03:13:50.029Z,36.87
2023-03-25T03:18:57.674Z,36.93
2023-03-25T03:24:05.022Z,36.96
2023-03-25T03:29:12.506Z,36.97
2023-03-25T03:34:20.160Z,37.08
2023-03-25T03:39:27.727Z,37.00
2023-03-25T03:44:35.020Z,37.07
2023-03-25T03:49:42.246Z,37.09
2023-03-25T03:54:49.611Z,37.07
2023-03-25T03:59:57.012Z,37.03
2023-03-25T04:05:04.362Z,37.13
2023-03-25T04:10:12.024Z,37.25
2023-03-25T04:15:19.396Z,37.46
2023-03-25T04:20:26.732Z,37.74
2023-03-25T04:25:33.997Z,37.90
2023-03-25T04:30:41.215Z,37.78
2023-03-25T04:35:48.480Z,37.81
2023-03-25T04:40:55.637Z,38.13
2023-03-25T04:46:02.867Z,38.23
2023-03-25T04:51:10.012Z,38.07
2023-03-25T04:56:17.398Z,38.27
2023-03-25T05:01:24.714Z,38.10
2023-03-25T05:06:31.995Z,38.46
2023-03-25T05:11:39.478Z,38.51
2023-03-25T05:16:46.919Z,38.47
2023-03-25T05:21:54.145Z,38.51
2023-03-25T05:27:01.544Z,38.48
2023-03-25T05:32:08.882Z,38.70
2023-03-25T05:37:16.264Z,38.34
2023-03-25T05:42:23.581Z,38.61
2023-03-25T05:47:30.955Z,38.70
2023-03-25T05:52:38.529Z,38.74
2023-03-25T05:57:46.300Z,38.93
2023-03-25T06:02:55.922Z,38.96
2023-03-25T06:08:03.254Z,39.05
2023-03-25T06:13:10.682Z,38.97
2023-03-25T06:18:18.030Z,39.00
2023-03-25T06:23:25.400Z,38.80
2023-03-25T06:28:32.762Z,38.67
2023-03-25T06:33:42.919Z,38.85
2023-03-25T06:38:47.779Z,38.90
2023-03-25T06:43:55.385Z,38.93
2023-03-25T06:49:02.846Z,38.97
2023-03-25T06:54:10.246Z,39.28
2023-03-25T06:59:17.690Z,39.34
2023-03-25T07:04:25.224Z,39.41
2023-03-25T07:09:32.717Z,39.53
2023-03-25T07:14:40.175Z,39.52
2023-03-25T07:19:47.626Z,39.73
2023-03-25T07:24:54.945Z,40.02
2023-03-25T07:30:02.515Z,39.95
2023-03-25T07:35:09.865Z,39.57
2023-03-25T07:40:17.148Z,39.44
2023-03-25T07:45:24.873Z,39.69
2023-03-25T07:50:32.333Z,40.05
2023-03-25T07:55:39.604Z,40.44
2023-03-25T08:00:46.926Z,40.22
2023-03-25T08:05:54.594Z,40.24
2023-03-25T08:11:01.862Z,40.30
2023-03-25T08:16:09.408Z,40.07
2023-03-25T08:21:16.728Z,40.25
2023-03-25T08:26:24.145Z,40.09
2023-03-25T08:31:31.547Z,39.97
2023-03-25T08:36:38.937Z,39.86
2023-03-25T08:41:46.537Z,39.86
2023-03-25T08:46:58.812Z,40.05
2023-03-25T08:52:06.075Z,40.06
2023-03-25T08:57:20.971Z,40.18
2023-03-25T09:02:28.409Z,39.84
2023-03-25T09:07:35.730Z,39.70
2023-03-25T09:12:43.126Z,39.76
2023-03-25T09:17:50.471Z,39.74
2023-03-25T09:22:57.793Z,39.90
2023-03-25T09:28:05.128Z,39.46
2023-03-25T09:33:12.442Z,39.85
2023-03-25T09:38:19.615Z,39.93
2023-03-25T09:43:26.927Z,39.58
2023-03-25T09:48:34.075Z,39.70
2023-03-25T09:53:41.258Z,39.91
2023-03-25T09:58:48.464Z,40.17
2023-03-25T10:04:04.775Z,40.20
2023-03-25T10:09:08.544Z,40.54
2023-03-25T10:14:15.971Z,41.28
2023-03-25T10:19:23.512Z,41.50
2023-03-25T10:24:30.943Z,40.63
2023-03-25T10:29:38.353Z,40.50
2023-03-25T10:34:45.808Z,40.38
2023-03-25T10:39:53.176Z,40.38
2023-03-25T10:45:00.651Z,40.20
2023-03-25T10:50:08.042Z,40.65
2023-03-25T10:55:15.919Z,40.99
2023-03-25T11:00:23.481Z,40.70
2023-03-25T11:05:48.132Z,40.18
2023-03-25T11:10:51.692Z,39.89
2023-03-25T11:15:59.113Z,39.86
2023-03-25T11:21:07.773Z,39.65
2023-03-25T11:26:14.971Z,39.56
2023-03-25T11:31:22.316Z,39.61
2023-03-25T11:36:29.558Z,39.48
2023-03-25T11:41:36.897Z,39.43
2023-03-25T11:46:49.012Z,39.93
2023-03-25T11:51:56.316Z,39.74
2023-03-25T11:57:03.506Z,39.22
2023-03-25T12:02:10.740Z,38.87
2023-03-25T12:07:17.973Z,38.68
2023-03-25T12:12:25.159Z,38.47
2023-03-25T12:17:32.493Z,38.19
2023-03-25T12:22:39.650Z,38.34
2023-03-25T12:27:46.907Z,37.17
2023-03-25T12:32:54.112Z,36.82
2023-03-25T12:38:01.293Z,35.07
2023-03-25T12:43:08.475Z,35.37
2023-03-25T12:48:15.713Z,34.23
2023-03-25T12:53:22.955Z,34.93
2023-03-25T12:58:30.122Z,34.95
2023-03-25T13:03:37.292Z,34.47
2023-03-25T13:08:44.490Z,34.49
2023-03-25T13:13:51.642Z,34.46
2023-03-25T13:18:58.840Z,34.58
2023-03-25T13:24:06.050Z,33.88
2023-03-25T13:29:13.205Z,34.16
2023-03-25T13:34:20.409Z,33.97
2023-03-25T13:39:27.693Z,33.99
2023-03-25T13:44:34.889Z,33.57
2023-03-25T13:49:42.167Z,33.55
2023-03-25T13:54:49.457Z,32.98
2023-03-25T13:59:56.610Z,33.06
2023-03-25T14:05:03.906Z,32.91
2023-03-25T14:10:11.120Z,32.33
2023-03-25T14:15:18.284Z,32.19
2023-03-25T14:20:25.507Z,32.14
2023-03-25T14:25:32.706Z,31.79
2023-03-25T14:30:39.920Z,31.27
2023-03-25T14:35:47.156Z,31.73
2023-03-25T14:41:02.244Z,32.31
2023-03-25T14:46:01.495Z,33.07
2023-03-25T14:51:08.693Z,32.99
2023-03-25T14:56:15.866Z,33.23
2023-03-25T15:01:23.057Z,33.10
2023-03-25T15:06:30.211Z,32.87
2023-03-25T15:11:37.440Z,33.19
2023-03-25T15:16:44.831Z,34.19
2023-03-25T15:21:52.114Z,33.79
2023-03-25T15:26:59.502Z,33.57
2023-03-25T15:32:06.707Z,34.03
2023-03-25T15:37:13.957Z,33.81
2023-03-25T15:42:21.265Z,33.55
2023-03-25T15:47:28.522Z,33.30
2023-03-25T15:52:35.797Z,33.66
2023-03-25T15:57:43.123Z,33.92
2023-03-25T16:02:50.347Z,33.76
2023-03-25T16:07:57.556Z,34.29
2023-03-25T16:13:04.775Z,33.71
2023-03-25T16:18:12.203Z,32.96
2023-03-25T16:23:19.548Z,32.81
2023-03-25T16:28:26.888Z,33.11
2023-03-25T16:33:34.088Z,33.60
2023-03-25T16:43:48.461Z,34.30
2023-03-25T16:59:10.245Z,34.70
2023-03-25T17:04:17.478Z,34.54
2023-03-25T17:09:24.697Z,33.88
2023-03-25T17:14:32.206Z,32.55
2023-03-25T17:19:39.432Z,32.81
2023-03-25T17:29:53.890Z,32.85
2023-03-25T17:40:08.753Z,32.91
2023-03-25T17:45:16.336Z,32.00
2023-03-25T17:50:23.550Z,32.39
2023-03-25T17:55:30.742Z,32.44
2023-03-25T18:05:45.260Z,32.72
2023-03-25T18:10:53.003Z,32.60
2023-03-25T18:15:59.768Z,32.90
2023-03-25T18:36:29.489Z,33.10
2023-03-25T18:41:37.063Z,33.04
2023-03-25T18:46:44.799Z,32.92
2023-03-25T18:51:52.450Z,32.87
2023-03-25T18:57:01.226Z,33.10
2023-03-25T19:02:08.764Z,33.17
2023-03-25T19:07:16.315Z,33.06
2023-03-25T19:12:23.943Z,33.13
2023-03-25T19:17:31.969Z,33.16
2023-03-25T19:27:47.634Z,33.18
2023-03-25T19:32:55.369Z,33.26
2023-03-25T19:38:03.145Z,33.23
2023-03-25T19:43:10.736Z,33.22
2023-03-25T19:48:18.476Z,33.47
2023-03-25T19:53:26.172Z,33.35
2023-03-25T19:58:33.647Z,33.67
2023-03-25T20:03:41.413Z,33.77
2023-03-25T20:08:48.873Z,33.49
2023-03-25T20:13:56.835Z,33.44
2023-03-25T20:19:04.199Z,33.36
2023-03-25T20:24:12.609Z,33.36
2023-03-25T20:29:20.292Z,33.44
2023-03-25T20:34:27.770Z,33.62
2023-03-25T20:39:35.231Z,33.41
2023-03-25T20:44:42.824Z,33.30
2023-03-25T20:49:50.465Z,33.32
2023-03-25T20:54:57.863Z,33.69
2023-03-25T21:00:05.163Z,33.48
2023-03-25T21:05:12.768Z,33.42
2023-03-25T21:10:20.161Z,33.17
2023-03-25T21:15:27.697Z,33.24
2023-03-25T21:20:35.159Z,33.33
2023-03-25T21:25:42.375Z,33.56
2023-03-25T21:30:49.725Z,33.72
2023-03-25T21:35:57.090Z,33.79
2023-03-25T21:41:04.262Z,33.73
2023-03-25T21:46:11.579Z,33.74
2023-03-25T21:51:19.079Z,33.73
2023-03-25T21:56:26.662Z,33.28
2023-03-25T22:01:34.112Z,33.13
2023-03-25T22:06:41.300Z,32.93
2023-03-25T22:11:48.589Z,32.52
2023-03-25T22:16:55.912Z,32.27
2023-03-25T22:22:03.131Z,32.52
2023-03-25T22:27:10.391Z,32.38
2023-03-25T22:32:17.592Z,32.62
2023-03-25T22:37:24.887Z,32.79
2023-03-25T22:42:32.161Z,32.79
2023-03-25T22:47:39.521Z,33.12
2023-03-25T22:52:46.738Z,32.88
2023-03-25T22:57:53.904Z,32.78
2023-03-25T23:03:01.275Z,32.52
2023-03-25T23:08:08.507Z,32.39
2023-03-25T23:13:15.768Z,32.14
2023-03-25T23:18:23.027Z,31.94
2023-03-25T23:23:30.286Z,32.14
2023-03-25T23:28:40.797Z,31.88
2023-03-25T23:33:45.542Z,32.00
2023-03-25T23:38:52.932Z,32.08
2023-03-25T23:44:00.156Z,31.98
2023-03-25T23:49:07.370Z,31.70
2023-03-25T23:54:14.798Z,32.32
2023-03-25T23:59:22.092Z,32.06
